Time;durP1;ratioP1;P1;durP2;ratioP2;P2;SDS_P1;SDS_P2;PMS_P1;PMS_P2;Temp;Humidity;BMP_temperature;BMP_pressure;BME280_temperature;BME280_humidity;BME280_pressure;Samples;Min_cycle;Max_cycle;Signal;HPM_P1;HPM_P2
2022/12/12 00:01:53;;;;;;;36.58;17.15;;;11.30;91.50;;;;;;5034479;28;20048;-67
2022/12/12 00:04:56;;;;;;;39.17;17.73;;;11.50;91.40;;;;;;5034566;28;20056;-66
2022/12/12 00:08:01;;;;;;;40.65;16.55;;;11.50;91.80;;;;;;5034364;28;20056;-66
2022/12/12 00:11:06;;;;;;;32.33;15.75;;;12.20;92.20;;;;;;5034496;28;20048;-67
2022/12/12 00:14:11;;;;;;;31.98;14.18;;;;;;;;;;5034436;28;20052;-66
2022/12/12 00:17:15;;;;;;;36.88;13.77;;;15.60;92.70;;;;;;5034367;28;20060;-67
2022/12/12 00:20:19;;;;;;;35.00;13.93;;;12.20;92.00;;;;;;5034445;28;20048;-66
2022/12/12 00:23:24;;;;;;;40.78;14.77;;;11.60;91.40;;;;;;5034230;28;20048;-66
2022/12/12 00:26:30;;;;;;;40.17;13.63;;;11.60;91.80;;;;;;5033166;28;20060;-66
2022/12/12 00:29:34;;;;;;;40.13;14.85;;;;;;;;;;5033827;28;20037;-67
2022/12/12 00:32:39;;;;;;;38.83;13.48;;;11.60;92.10;;;;;;5033752;28;20041;-67
2022/12/12 00:35:43;;;;;;;25.02;12.63;;;;;;;;;;5033903;28;20052;-67
2022/12/12 00:38:48;;;;;;;30.33;11.52;;;;;;;;;;5033789;28;20385;-66
2022/12/12 00:41:53;;;;;;;28.00;10.70;;;11.70;91.50;;;;;;5033877;28;20056;-65
2022/12/12 00:44:57;;;;;;;32.30;11.32;;;;;;;;;;5033371;28;20402;-66
2022/12/12 00:48:01;;;;;;;26.33;11.25;;;;;;;;;;5033569;28;20064;-65
2022/12/12 00:51:11;;;;;;;29.75;11.98;;;;;;;;;;5033454;28;20044;-67
2022/12/12 00:54:15;;;;;;;24.95;11.85;;;;;;;;;;5033387;28;20053;-66
2022/12/12 00:57:19;;;;;;;27.48;11.40;;;;;;;;;;5033340;28;20041;-67
2022/12/12 01:00:24;;;;;;;26.13;11.95;;;;;;;;;;5032961;28;20417;-67
2022/12/12 01:03:30;;;;;;;29.58;11.38;;;12.40;92.00;;;;;;5033493;28;20049;-67
2022/12/12 01:06:35;;;;;;;25.42;11.45;;;;;;;;;;5033220;28;20057;-67
2022/12/12 01:09:39;;;;;;;30.98;10.98;;;;;;;;;;5033187;28;20109;-66
2022/12/12 01:12:44;;;;;;;30.52;11.45;;;11.40;92.00;;;;;;5033373;28;20539;-66
2022/12/12 01:15:48;;;;;;;34.50;10.73;;;;;;;;;;5033300;28;20040;-66
2022/12/12 01:18:52;;;;;;;27.77;11.07;;;11.50;92.80;;;;;;5033095;28;20210;-66
2022/12/12 01:21:56;;;;;;;24.40;11.13;;;11.60;92.60;;;;;;5032985;28;20044;-67
2022/12/12 01:25:01;;;;;;;29.95;12.30;;;;;;;;;;5033520;28;20500;-67
2022/12/12 01:28:05;;;;;;;24.17;11.60;;;11.70;92.40;;;;;;5033088;28;20049;-67
2022/12/12 01:31:10;;;;;;;30.98;12.45;;;;;;;;;;5032843;28;20041;-67
2022/12/12 01:34:14;;;;;;;39.40;13.73;;;;;;;;;;5032663;28;20044;-67
2022/12/12 01:37:19;;;;;;;29.85;12.43;;;;;;;;;;5043068;28;20048;-67
2022/12/12 01:40:25;;;;;;;31.50;12.07;;;11.60;92.00;;;;;;5032530;28;20429;-68
2022/12/12 01:43:29;;;;;;;28.45;10.63;;;;;;;;;;5032312;28;20044;-67
2022/12/12 01:46:44;;;;;;;26.33;10.10;;;11.70;92.30;;;;;;5031621;28;20086;-67
2022/12/12 01:50:01;;;;;;;25.80;10.20;;;11.90;92.60;;;;;;5032688;28;20052;-67
2022/12/12 01:53:06;;;;;;;29.08;10.13;;;11.60;93.10;;;;;;5032528;28;20040;-66
2022/12/12 01:56:14;;;;;;;20.95;10.20;;;11.50;93.40;;;;;;5032350;28;20045;-66
2022/12/12 01:59:21;;;;;;;21.90;9.73;;;9.50;93.10;;;;;;5032391;28;20048;-67
2022/12/12 02:02:26;;;;;;;24.50;9.60;;;11.70;93.70;;;;;;5032196;28;20044;-67
2022/12/12 02:05:36;;;;;;;26.77;9.77;;;10.40;93.30;;;;;;5032252;28;20060;-67
2022/12/12 02:08:40;;;;;;;28.77;8.82;;;;;;;;;;5032587;28;20052;-67
2022/12/12 02:11:47;;;;;;;26.75;9.60;;;12.30;93.80;;;;;;5032391;28;20366;-67
2022/12/12 02:14:52;;;;;;;28.38;11.00;;;10.20;93.50;;;;;;5032320;28;20044;-67
2022/12/12 02:18:07;;;;;;;27.83;9.95;;;11.60;94.00;;;;;;5031276;28;20144;-67
2022/12/12 02:21:25;;;;;;;25.02;9.90;;;10.10;93.40;;;;;;5031865;28;20048;-67
2022/12/12 02:24:41;;;;;;;25.67;8.52;;;11.60;93.70;;;;;;5031978;28;20044;-66
2022/12/12 02:27:46;;;;;;;22.67;8.82;;;;;;;;;;5032056;28;20393;-67
2022/12/12 02:30:53;;;;;;;27.35;10.30;;;;;;;;;;5031756;28;20033;-66
2022/12/12 02:34:02;;;;;;;21.63;9.23;;;11.60;94.00;;;;;;5031438;28;20045;-66
2022/12/12 02:37:06;;;;;;;26.67;8.35;;;;;;;;;;5031751;28;20060;-67
2022/12/12 02:40:37;;;;;;;21.23;8.50;;;11.60;93.90;;;;;;5031593;28;20292;-66
2022/12/12 02:44:18;;;;;;;24.03;7.57;;;11.70;93.90;;;;;;5031357;28;20048;-67
2022/12/12 02:47:29;;;;;;;18.77;6.47;;;11.80;93.50;;;;;;5025353;28;20295;-67
2022/12/12 02:50:35;;;;;;;26.63;7.32;;;11.80;93.70;;;;;;5031492;28;20108;-68
2022/12/12 02:53:39;;;;;;;21.83;8.00;;;;;;;;;;5031374;28;20044;-66
2022/12/12 02:56:43;;;;;;;21.52;7.22;;;;;;;;;;5031616;28;20052;-66
2022/12/12 02:59:58;;;;;;;22.02;6.45;;;11.70;94.10;;;;;;5031205;28;20052;-66
2022/12/12 03:10:39;;;;;;;19.73;6.65;;;11.70;93.80;;;;;;5031397;28;20045;-66
2022/12/12 03:13:57;;;;;;;19.98;5.78;;;11.80;94.00;;;;;;5031033;28;20057;-66
2022/12/12 03:17:22;;;;;;;19.63;6.07;;;13.10;94.50;;;;;;5031292;28;20040;-66
2022/12/12 03:20:39;;;;;;;18.58;6.18;;;12.00;94.40;;;;;;5031103;28;20060;-66
2022/12/12 03:23:46;;;;;;;22.17;7.13;;;11.70;94.40;;;;;;5030692;28;20053;-67
2022/12/12 03:26:56;;;;;;;16.10;6.53;;;11.90;94.70;;;;;;5030850;28;20052;-66
2022/12/12 03:30:08;;;;;;;18.48;6.97;;;11.80;95.10;;;;;;5030166;28;20428;-66
2022/12/12 03:33:52;;;;;;;21.17;7.25;;;11.80;95.10;;;;;;5041408;28;20072;-66
2022/12/12 03:37:05;;;;;;;20.83;7.30;;;11.90;94.60;;;;;;5031031;28;20052;-65
2022/12/12 03:40:23;;;;;;;22.65;7.50;;;11.80;95.40;;;;;;5031003;28;20109;-66
2022/12/12 03:43:32;;;;;;;25.70;7.47;;;11.50;95.40;;;;;;5030659;28;20045;-66
2022/12/12 03:46:43;;;;;;;19.30;7.28;;;11.30;95.50;;;;;;5030792;28;20057;-66
2022/12/12 03:50:02;;;;;;;19.23;6.88;;;11.70;95.80;;;;;;5030825;28;20044;-66
2022/12/12 03:53:31;;;;;;;24.98;6.72;;;10.40;95.70;;;;;;5030567;28;20049;-66
2022/12/12 03:57:07;;;;;;;22.45;6.90;;;11.50;95.80;;;;;;5030859;28;20056;-66
2022/12/12 04:00:14;;;;;;;17.70;6.40;;;8.60;95.40;;;;;;5031155;28;20044;-66
2022/12/12 04:03:35;;;;;;;17.67;6.28;;;11.50;96.20;;;;;;5030467;28;20052;-67
2022/12/12 04:06:48;;;;;;;17.65;7.25;;;11.60;95.60;;;;;;5030576;28;20107;-67
2022/12/12 04:13:28;;;;;;;23.88;6.53;;;;;;;;;;5030728;28;20060;-67
2022/12/12 04:16:38;;;;;;;20.13;6.72;;;11.70;95.40;;;;;;5030512;28;20038;-67
2022/12/12 04:24:01;;;;;;;28.35;6.90;;;11.60;95.70;;;;;;5030394;28;20045;-67
2022/12/12 04:27:15;;;;;;;20.20;6.32;;;13.50;95.60;;;;;;5030395;28;20056;-67
2022/12/12 04:30:19;;;;;;;24.60;6.97;;;11.70;95.20;;;;;;5030177;28;20048;-67
2022/12/12 04:33:28;;;;;;;26.25;6.60;;;11.60;95.50;;;;;;5030425;28;20048;-67
2022/12/12 04:36:34;;;;;;;24.67;6.35;;;13.00;95.70;;;;;;5032477;28;20033;-66
2022/12/12 04:39:40;;;;;;;17.25;5.85;;;11.60;95.30;;;;;;5034027;28;20503;-66
2022/12/12 04:42:57;;;;;;;25.77;7.10;;;11.50;95.40;;;;;;5033950;28;20048;-66
2022/12/12 04:46:25;;;;;;;19.52;6.20;;;11.60;95.30;;;;;;5033703;28;20223;-66
2022/12/12 04:49:30;;;;;;;24.30;6.30;;;11.40;95.50;;;;;;5033902;28;20052;-66
2022/12/12 04:52:35;;;;;;;22.40;6.00;;;11.60;95.70;;;;;;5033770;28;20127;-66
2022/12/12 04:55:45;;;;;;;17.50;6.50;;;12.00;96.10;;;;;;5033494;28;20060;-67
2022/12/12 04:58:49;;;;;;;24.83;6.97;;;;;;;;;;5033797;28;20032;-67
2022/12/12 05:02:09;;;;;;;21.27;6.38;;;12.90;96.60;;;;;;5033503;28;20041;-67
2022/12/12 05:05:25;;;;;;;21.42;7.03;;;11.50;96.30;;;;;;5033220;28;20097;-66
2022/12/12 05:08:33;;;;;;;22.42;7.10;;;11.30;96.50;;;;;;5033568;28;20052;-66
2022/12/12 05:11:37;;;;;;;31.95;7.53;;;;;;;;;;5033009;28;20049;-66
2022/12/12 05:14:43;;;;;;;29.63;8.52;;;;;;;;;;5033461;28;20041;-66
2022/12/12 05:17:57;;;;;;;30.70;7.32;;;11.40;96.80;;;;;;5033128;28;20421;-67
2022/12/12 05:21:01;;;;;;;30.50;6.40;;;;;;;;;;5033097;28;20095;-67
2022/12/12 05:24:05;;;;;;;18.23;7.07;;;11.30;96.60;;;;;;5032824;28;20511;-67
2022/12/12 05:27:11;;;;;;;17.77;6.70;;;12.20;96.80;;;;;;5031968;28;20072;-67
2022/12/12 05:30:15;;;;;;;33.47;6.40;;;10.50;96.60;;;;;;5032923;28;20053;-66
2022/12/12 05:33:19;;;;;;;21.50;6.28;;;11.20;97.00;;;;;;5032780;28;20060;-66
2022/12/12 05:36:23;;;;;;;26.08;7.70;;;;;;;;;;5032777;28;20052;-66
2022/12/12 05:39:27;;;;;;;25.08;7.25;;;;;;;;;;5032536;28;20033;-66
2022/12/12 05:42:32;;;;;;;26.10;8.15;;;;;;;;;;5032652;28;20494;-67
2022/12/12 05:45:36;;;;;;;25.08;7.70;;;;;;;;;;5032350;28;20033;-67
2022/12/12 05:48:40;;;;;;;27.42;7.07;;;;;;;;;;5031903;28;20046;-66
2022/12/12 05:51:45;;;;;;;27.00;7.30;;;;;;;;;;5032301;28;20040;-66
2022/12/12 05:54:49;;;;;;;18.90;6.22;;;;;;;;;;5032353;28;20048;-66
2022/12/12 05:57:53;;;;;;;27.52;6.97;;;;;;;;;;5032303;28;20432;-66
2022/12/12 06:00:58;;;;;;;24.27;7.03;;;;;;;;;;5032605;28;20038;-66
2022/12/12 06:04:02;;;;;;;18.00;7.03;;;;;;;;;;5032433;28;20049;-66
2022/12/12 06:07:08;;;;;;;19.95;6.82;;;11.00;97.90;;;;;;5031910;28;20049;-66
2022/12/12 06:10:13;;;;;;;29.08;6.35;;;;;;;;;;5031905;28;20061;-67
2022/12/12 06:13:16;;;;;;;21.38;6.95;;;10.70;97.60;;;;;;5031953;28;20052;-66
2022/12/12 06:16:21;;;;;;;27.77;8.07;;;;;;;;;;5031790;28;20048;-66
2022/12/12 06:19:25;;;;;;;19.25;6.88;;;12.40;98.50;;;;;;5032090;28;20500;-66
2022/12/12 06:22:29;;;;;;;21.98;7.20;;;;;;;;;;5031837;28;20064;-67
2022/12/12 06:25:34;;;;;;;34.22;8.48;;;;;;;;;;5031968;28;20049;-67
2022/12/12 06:28:38;;;;;;;20.85;7.20;;;;;;;;;;5032095;28;20398;-68
2022/12/12 06:31:42;;;;;;;25.13;8.02;;;;;;;;;;5031980;28;20037;-66
2022/12/12 06:34:47;;;;;;;27.55;9.43;;;;;;;;;;5031686;28;20045;-68
2022/12/12 06:37:51;;;;;;;31.63;9.77;;;;;;;;;;5031561;28;20382;-66
2022/12/12 06:40:55;;;;;;;31.13;11.93;;;10.90;98.60;;;;;;5031468;28;20059;-67
2022/12/12 06:44:00;;;;;;;34.58;11.15;;;;;;;;;;5031352;28;20048;-66
2022/12/12 06:47:04;;;;;;;30.45;9.48;;;;;;;;;;5031229;28;20056;-67
2022/12/12 06:50:08;;;;;;;42.10;10.32;;;10.40;98.40;;;;;;5030996;28;20041;-67
2022/12/12 06:53:13;;;;;;;34.83;9.88;;;;;;;;;;5031383;28;20044;-68
2022/12/12 06:56:20;;;;;;;23.23;8.57;;;10.30;98.20;;;;;;5031617;28;20051;-68
2022/12/12 06:59:24;;;;;;;30.73;9.05;;;;;;;;;;5029805;28;20405;-67
2022/12/12 07:02:28;;;;;;;34.45;8.68;;;;;;;;;;5031175;28;20474;-66
2022/12/12 07:05:33;;;;;;;31.58;8.00;;;;;;;;;;5031196;28;20029;-68
2022/12/12 07:08:37;;;;;;;34.83;8.57;;;12.40;98.20;;;;;;5030848;28;20069;-68
2022/12/12 07:11:41;;;;;;;36.97;8.57;;;;;;;;;;5031105;28;20036;-67
2022/12/12 07:14:46;;;;;;;37.75;9.07;;;;;;;;;;5031149;28;20048;-66
2022/12/12 07:17:52;;;;;;;37.17;8.70;;;12.70;98.10;;;;;;5030928;28;20038;-67
2022/12/12 07:20:57;;;;;;;31.40;7.55;;;;;;;;;;5031313;28;20116;-69
2022/12/12 07:24:01;;;;;;;42.50;8.70;;;;;;;;;;5030679;28;20041;-68
2022/12/12 07:27:06;;;;;;;31.95;9.13;;;;;;;;;;5041095;28;20053;-66
2022/12/12 07:30:11;;;;;;;28.75;8.50;;;11.40;98.00;;;;;;5031135;28;20370;-68
2022/12/12 07:33:16;;;;;;;31.35;9.45;;;11.40;98.30;;;;;;5030815;28;20037;-69
2022/12/12 07:36:20;;;;;;;29.95;9.10;;;;;;;;;;5030821;28;20044;-68
2022/12/12 07:39:24;;;;;;;30.40;8.60;;;;;;;;;;5031011;28;20045;-68
2022/12/12 07:42:29;;;;;;;35.50;10.70;;;;;;;;;;5030568;28;20038;-71
2022/12/12 07:45:33;;;;;;;37.35;9.90;;;;;;;;;;5030913;28;20500;-67
2022/12/12 07:48:37;;;;;;;40.50;8.93;;;;;;;;;;5030548;28;20044;-67
2022/12/12 07:51:42;;;;;;;35.03;9.27;;;;;;;;;;5030781;28;20046;-71
2022/12/12 07:54:46;;;;;;;30.40;7.78;;;;;;;;;;5030370;28;20046;-69
2022/12/12 07:57:52;;;;;;;30.60;8.95;;;;;;;;;;5030548;28;20052;-69
2022/12/12 08:00:56;;;;;;;27.95;8.48;;;10.00;97.40;;;;;;5030428;28;20041;-64
2022/12/12 08:03:59;;;;;;;25.52;7.65;;;11.70;97.30;;;;;;5030463;28;20048;-65
2022/12/12 08:07:04;;;;;;;33.40;8.07;;;;;;;;;;5030303;28;20064;-67
2022/12/12 08:10:08;;;;;;;39.10;7.25;;;;;;;;;;5030684;28;20496;-67
2022/12/12 08:13:12;;;;;;;31.67;7.28;;;;;;;;;;5034197;28;20041;-68
2022/12/12 08:16:23;;;;;;;26.15;7.43;;;12.00;96.40;;;;;;5034000;28;20033;-66
2022/12/12 08:19:28;;;;;;;54.70;9.35;;;;;;;;;;5034166;28;20044;-66
2022/12/12 08:22:32;;;;;;;25.23;7.78;;;12.90;96.60;;;;;;5034125;28;20140;-65
2022/12/12 08:25:37;;;;;;;32.92;8.50;;;;;;;;;;5034025;28;20056;-64
2022/12/12 08:28:43;;;;;;;31.83;8.20;;;11.40;95.90;;;;;;5034166;28;20069;-66
2022/12/12 08:31:47;;;;;;;44.80;8.07;;;12.20;96.20;;;;;;5033489;28;20540;-68
2022/12/12 08:34:58;;;;;;;33.33;7.28;;;12.00;95.70;;;;;;5033888;28;20040;-68
2022/12/12 08:38:02;;;;;;;31.77;7.65;;;12.30;95.90;;;;;;5033986;28;20400;-66
2022/12/12 08:41:08;;;;;;;34.83;7.32;;;12.40;95.80;;;;;;5033461;28;20045;-66
2022/12/12 08:44:14;;;;;;;45.72;8.20;;;13.30;95.90;;;;;;5033418;28;20421;-65
2022/12/12 08:47:18;;;;;;;40.83;7.57;;;;;;;;;;5033460;28;20064;-69
2022/12/12 08:50:22;;;;;;;34.55;8.77;;;12.50;95.60;;;;;;5033542;28;20040;-65
2022/12/12 08:53:26;;;;;;;34.42;8.25;;;12.70;94.80;;;;;;5033681;28;20040;-68
2022/12/12 08:56:30;;;;;;;28.52;6.97;;;12.80;94.60;;;;;;5033642;28;20423;-66
2022/12/12 08:59:35;;;;;;;41.58;9.18;;;13.00;94.70;;;;;;5033577;28;20386;-68
2022/12/12 09:02:39;;;;;;;30.85;7.05;;;13.00;94.70;;;;;;5033354;28;20520;-65
2022/12/12 09:05:44;;;;;;;28.13;7.40;;;13.30;94.80;;;;;;5033463;28;20057;-71
2022/12/12 09:08:49;;;;;;;20.75;7.13;;;13.90;94.50;;;;;;5033295;28;20065;-68
2022/12/12 09:11:52;;;;;;;24.08;7.55;;;13.80;94.70;;;;;;5033359;28;20052;-68
2022/12/12 09:14:56;;;;;;;21.35;7.88;;;14.10;94.40;;;;;;5032771;28;20064;-69
2022/12/12 09:18:01;;;;;;;26.50;8.55;;;14.30;93.10;;;;;;5032764;28;20041;-69
2022/12/12 09:21:05;;;;;;;20.38;8.00;;;14.30;93.30;;;;;;5032938;28;20475;-68
2022/12/12 09:24:09;;;;;;;18.25;6.72;;;14.30;92.80;;;;;;5032386;28;20488;-69
2022/12/12 09:27:13;;;;;;;18.73;6.70;;;14.40;92.90;;;;;;5032609;28;20068;-65
2022/12/12 09:30:18;;;;;;;21.85;6.43;;;14.30;92.30;;;;;;5032622;28;20041;-71
2022/12/12 09:33:22;;;;;;;24.30;8.90;;;14.40;92.50;;;;;;5032376;28;20053;-67
2022/12/12 09:36:26;;;;;;;22.95;9.05;;;14.60;92.40;;;;;;5031592;28;20048;-68
2022/12/12 09:39:30;;;;;;;26.48;9.90;;;14.80;92.30;;;;;;5032731;28;20409;-67
2022/12/12 09:42:39;;;;;;;30.67;8.27;;;15.10;92.10;;;;;;5032296;28;20068;-69
2022/12/12 09:45:43;;;;;;;34.97;8.35;;;15.30;91.70;;;;;;5032419;28;20401;-66
2022/12/12 09:48:46;;;;;;;25.38;8.35;;;15.40;91.20;;;;;;5032068;28;20052;-68
2022/12/12 09:51:51;;;;;;;23.10;7.47;;;15.50;91.50;;;;;;5032354;28;20044;-68
2022/12/12 09:54:58;;;;;;;22.65;8.52;;;15.60;91.70;;;;;;5032444;28;20073;-67
2022/12/12 09:58:16;;;;;;;16.77;7.10;;;15.70;91.50;;;;;;5032237;28;20498;-70
2022/12/12 10:01:30;;;;;;;25.42;7.63;;;15.90;91.80;;;;;;5032382;28;20048;-68
2022/12/12 10:04:51;;;;;;;18.95;6.85;;;16.00;91.50;;;;;;5032171;28;20052;-68
2022/12/12 10:08:02;;;;;;;15.75;7.78;;;15.90;91.50;;;;;;5031957;28;20404;-69
2022/12/12 10:14:46;;;;;;;21.08;7.82;;;15.80;91.30;;;;;;5031734;28;20040;-67
2022/12/12 10:17:51;;;;;;;17.33;6.68;;;15.60;90.10;;;;;;5031853;28;20056;-67
2022/12/12 10:21:03;;;;;;;15.48;7.13;;;15.60;90.50;;;;;;5031672;28;20049;-70
2022/12/12 10:24:34;;;;;;;14.13;5.78;;;15.70;90.20;;;;;;5031611;28;20052;-67
2022/12/12 10:27:38;;;;;;;8.98;2.75;;;15.80;89.40;;;;;;5031943;28;20057;-68
2022/12/12 10:31:08;;;;;;;10.73;2.97;;;15.90;84.20;;;;;;5031864;28;20184;-68
2022/12/12 10:34:46;;;;;;;9.25;2.85;;;16.10;81.60;;;;;;5031460;28;20045;-68
2022/12/12 10:38:21;;;;;;;6.20;2.00;;;16.30;79.00;;;;;;5031559;28;20051;-68
2022/12/12 10:41:39;;;;;;;5.70;1.60;;;16.30;75.30;;;;;;5031235;28;20040;-68
2022/12/12 10:45:12;;;;;;;9.95;2.00;;;16.40;74.90;;;;;;5031418;28;20596;-67
2022/12/12 10:48:16;;;;;;;4.60;1.40;;;16.50;75.20;;;;;;5031063;28;20064;-67
2022/12/12 10:51:23;;;;;;;5.85;2.00;;;16.60;71.10;;;;;;5031097;28;20045;-68
2022/12/12 10:54:31;;;;;;;11.20;3.92;;;16.70;72.00;;;;;;5031151;28;20060;-67
2022/12/12 10:57:35;;;;;;;8.00;3.20;;;16.80;72.20;;;;;;5031172;28;20507;-68
2022/12/12 11:00:41;;;;;;;10.35;3.75;;;16.90;72.80;;;;;;5031171;28;20120;-66
2022/12/12 11:03:50;;;;;;;10.02;2.80;;;17.00;72.90;;;;;;5031152;28;20044;-67
2022/12/12 11:06:56;;;;;;;11.07;3.15;;;17.00;72.70;;;;;;5030770;28;20056;-67
2022/12/12 11:10:00;;;;;;;8.05;2.83;;;17.10;72.40;;;;;;5030941;28;20045;-67
2022/12/12 11:13:08;;;;;;;12.50;3.22;;;17.10;72.50;;;;;;5031130;28;20040;-68
2022/12/12 11:16:16;;;;;;;7.28;2.25;;;17.10;71.90;;;;;;5031092;28;20105;-68
2022/12/12 11:19:22;;;;;;;12.00;2.80;;;17.10;72.40;;;;;;5030987;28;20503;-67
2022/12/12 11:22:29;;;;;;;13.85;2.20;;;17.10;73.30;;;;;;5030796;28;20425;-67
2022/12/12 11:25:34;;;;;;;13.82;2.53;;;17.10;70.70;;;;;;5030858;28;20071;-67
2022/12/12 11:28:41;;;;;;;6.00;1.95;;;17.00;70.50;;;;;;5030876;28;20056;-67
2022/12/12 11:31:45;;;;;;;9.32;2.08;;;17.00;71.50;;;;;;5030607;28;20037;-67
2022/12/12 11:34:55;;;;;;;11.38;2.42;;;17.00;71.70;;;;;;5030437;28;20061;-67
2022/12/12 11:38:07;;;;;;;7.60;2.55;;;17.00;71.40;;;;;;5029797;28;20040;-67
2022/12/12 11:41:11;;;;;;;9.23;2.00;;;16.90;72.70;;;;;;5031091;28;20045;-68
2022/12/12 11:44:24;;;;;;;6.70;2.20;;;16.90;71.00;;;;;;5030842;28;20049;-67
2022/12/12 11:47:47;;;;;;;7.32;1.70;;;16.80;72.20;;;;;;5034598;28;20045;-66
2022/12/12 11:50:51;;;;;;;12.57;2.67;;;16.80;72.80;;;;;;5034791;28;20393;-66
2022/12/12 11:53:55;;;;;;;6.05;1.95;;;16.80;72.90;;;;;;5034286;28;20036;-69
2022/12/12 11:57:05;;;;;;;6.93;2.10;;;16.70;73.70;;;;;;5034614;28;20523;-66
2022/12/12 12:00:23;;;;;;;6.22;1.70;;;16.70;74.40;;;;;;5034316;28;20048;-68
2022/12/12 12:03:51;;;;;;;6.78;1.92;;;16.70;73.20;;;;;;5034215;28;20045;-67
2022/12/12 12:07:21;;;;;;;6.03;2.03;;;16.70;72.50;;;;;;5034605;28;20405;-66
2022/12/12 12:10:37;;;;;;;7.55;2.13;;;16.60;73.30;;;;;;5034443;28;20044;-67
2022/12/12 12:14:01;;;;;;;4.32;1.80;;;16.60;72.70;;;;;;5034788;28;20053;-67
2022/12/12 12:17:24;;;;;;;5.05;1.65;;;16.60;73.40;;;;;;5034104;28;20044;-68
2022/12/12 12:20:37;;;;;;;7.68;2.08;;;16.70;72.40;;;;;;5034046;28;20036;-67
2022/12/12 12:23:59;;;;;;;7.60;1.83;;;16.60;73.70;;;;;;5034088;28;20044;-66
2022/12/12 12:27:28;;;;;;;4.57;1.48;;;16.60;72.40;;;;;;5034188;28;20056;-66
2022/12/12 12:30:37;;;;;;;8.25;1.98;;;16.50;74.00;;;;;;5044677;28;20049;-66
2022/12/12 12:34:07;;;;;;;13.70;4.10;;;16.50;75.00;;;;;;5033773;28;20040;-69
2022/12/12 12:37:26;;;;;;;8.38;3.13;;;16.40;73.10;;;;;;5032867;28;20048;-68
2022/12/12 12:40:36;;;;;;;8.13;2.72;;;16.40;74.90;;;;;;5033532;28;20397;-67
2022/12/12 12:43:43;;;;;;;11.18;2.70;;;16.40;76.70;;;;;;5033342;28;20045;-67
2022/12/12 12:47:48;;;;;;;9.02;1.80;;;16.40;76.10;;;;;;5033455;28;20060;-69
2022/12/12 12:51:00;;;;;;;10.30;2.60;;;16.40;76.80;;;;;;5011555;28;20141;-67
2022/12/12 12:54:14;;;;;;;10.30;3.28;;;16.40;76.70;;;;;;5012293;28;20049;-66
2022/12/12 12:57:42;;;;;;;15.35;2.58;;;16.30;72.80;;;;;;5033608;28;20393;-67
2022/12/12 13:01:17;;;;;;;6.18;1.85;;;16.30;74.40;;;;;;5033502;28;20044;-67
2022/12/12 13:04:24;;;;;;;11.75;2.83;;;16.30;76.10;;;;;;5033604;28;20389;-67
2022/12/12 13:07:58;;;;;;;7.30;2.42;;;16.20;75.30;;;;;;5033289;28;20048;-66
2022/12/12 13:11:09;;;;;;;9.90;1.95;;;16.20;72.90;;;;;;5033209;28;20044;-67
2022/12/12 13:14:39;;;;;;;9.05;2.00;;;16.10;73.60;;;;;;5033269;28;20405;-66
2022/12/12 13:17:52;;;;;;;10.90;2.13;;;16.00;75.60;;;;;;5033301;28;20045;-67
2022/12/12 13:21:06;;;;;;;6.88;2.20;;;16.00;74.30;;;;;;5032948;28;20400;-68
2022/12/12 13:24:35;;;;;;;13.23;2.65;;;15.90;74.10;;;;;;5033263;28;20055;-67
2022/12/12 13:27:44;;;;;;;11.07;2.70;;;15.90;76.30;;;;;;5032676;28;20064;-66
2022/12/12 13:31:03;;;;;;;5.90;1.95;;;15.90;73.30;;;;;;5032717;28;20041;-66
2022/12/12 13:34:15;;;;;;;11.63;1.83;;;15.80;73.80;;;;;;5033041;28;20045;-66
2022/12/12 13:37:21;;;;;;;4.47;1.80;;;15.80;72.50;;;;;;5032713;28;20120;-65
2022/12/12 13:40:31;;;;;;;24.73;3.22;;;15.80;74.90;;;;;;5032887;28;20393;-66
2022/12/12 13:43:44;;;;;;;19.92;2.33;;;15.70;75.70;;;;;;5032603;28;20032;-66
2022/12/12 13:46:48;;;;;;;10.02;2.45;;;15.70;76.20;;;;;;5032656;28;20049;-70
2022/12/12 13:49:59;;;;;;;16.88;10.25;;;15.70;76.70;;;;;;5032093;28;20409;-69
2022/12/12 13:53:07;;;;;;;9.43;3.42;;;15.70;77.00;;;;;;5032375;28;20393;-66
2022/12/12 13:56:36;;;;;;;15.30;2.55;;;15.70;79.80;;;;;;5031184;28;20048;-66
2022/12/12 13:59:53;;;;;;;13.18;2.80;;;15.60;76.80;;;;;;5030888;28;20048;-68
2022/12/12 14:03:01;;;;;;;13.32;2.80;;;15.60;77.30;;;;;;5032371;28;20056;-68
2022/12/12 14:06:10;;;;;;;9.43;2.17;;;15.50;76.80;;;;;;5032048;28;20044;-68
2022/12/12 14:09:21;;;;;;;14.20;2.45;;;15.50;76.20;;;;;;5031529;28;20064;-69
2022/12/12 14:12:26;;;;;;;12.97;2.30;;;15.40;77.10;;;;;;5032206;28;20048;-68
2022/12/12 14:15:31;;;;;;;15.25;3.10;;;15.30;76.00;;;;;;5031769;28;20053;-67
2022/12/12 14:18:40;;;;;;;10.55;3.08;;;15.30;76.70;;;;;;5032250;28;20041;-66
2022/12/12 14:21:47;;;;;;;16.83;3.58;;;15.30;77.10;;;;;;5032561;28;20048;-68
2022/12/12 14:25:16;;;;;;;12.25;3.40;;;15.20;77.30;;;;;;5031378;28;20401;-68
2022/12/12 14:28:32;;;;;;;14.70;2.90;;;15.20;78.00;;;;;;5029991;28;20049;-71
2022/12/12 14:31:40;;;;;;;9.05;2.95;;;15.20;77.40;;;;;;5029674;28;20044;-70
2022/12/12 14:34:56;;;;;;;19.75;2.33;;;15.20;77.40;;;;;;5029417;28;20040;-69
2022/12/12 14:38:23;;;;;;;8.55;2.30;;;15.10;77.00;;;;;;5030572;28;20503;-71
2022/12/12 14:41:34;;;;;;;12.00;2.78;;;15.10;77.90;;;;;;5031024;28;20523;-70
2022/12/12 14:44:42;;;;;;;15.00;3.97;;;15.10;78.30;;;;;;5031662;28;20086;-71
2022/12/12 14:47:46;;;;;;;7.72;2.22;;;15.00;79.20;;;;;;5031535;28;20060;-72
2022/12/12 14:50:56;;;;;;;11.15;2.90;;;15.00;77.90;;;;;;5031352;28;20396;-70
2022/12/12 14:54:02;;;;;;;15.63;2.40;;;15.00;78.20;;;;;;5031226;28;20053;-69
2022/12/12 14:57:06;;;;;;;19.00;3.35;;;14.90;78.60;;;;;;5031225;28;20492;-68
2022/12/12 15:00:18;;;;;;;20.33;6.13;;;14.80;80.00;;;;;;5031208;28;20044;-68
2022/12/12 15:03:24;;;;;;;;;;;14.90;80.30;;;;;;5031522;28;20059;-67
2022/12/12 15:06:40;;;;;;;22.50;3.05;;;14.80;80.20;;;;;;5030868;28;20379;-68
2022/12/12 15:09:48;;;;;;;19.27;3.85;;;14.80;80.10;;;;;;5030479;28;20064;-69
2022/12/12 15:12:52;;;;;;;9.48;2.50;;;14.70;79.10;;;;;;5031228;28;20045;-69
2022/12/12 15:15:56;;;;;;;12.57;2.67;;;14.70;78.90;;;;;;5030830;28;20401;-68
2022/12/12 15:19:01;;;;;;;16.35;3.05;;;14.60;78.70;;;;;;5031110;28;20052;-67
2022/12/12 15:22:30;;;;;;;17.75;3.35;;;14.50;78.80;;;;;;5030629;28;20056;-68
2022/12/12 15:25:46;;;;;;;13.77;2.63;;;14.50;78.60;;;;;;5031117;28;20048;-68
2022/12/12 15:28:51;;;;;;;18.48;5.88;;;14.40;79.00;;;;;;5030867;28;20076;-68
2022/12/12 15:32:02;;;;;;;21.83;3.95;;;14.30;79.70;;;;;;5030757;28;20045;-68
2022/12/12 15:35:06;;;;;;;11.43;2.90;;;14.30;79.80;;;;;;5031056;28;20044;-69
2022/12/12 15:38:12;;;;;;;15.55;3.67;;;14.20;79.90;;;;;;5030887;28;20048;-74
2022/12/12 15:41:20;;;;;;;14.60;3.13;;;14.20;79.80;;;;;;5030682;28;20436;-68
2022/12/12 15:44:26;;;;;;;13.45;3.00;;;14.10;80.10;;;;;;5030662;28;20039;-69
2022/12/12 15:47:30;;;;;;;17.92;6.45;;;14.00;80.10;;;;;;5030428;28;20040;-69
2022/12/12 15:50:57;;;;;;;25.55;7.00;;;13.90;81.10;;;;;;5030682;28;20048;-72
2022/12/12 15:54:01;;;;;;;34.83;11.55;;;13.90;81.40;;;;;;5030282;28;20053;-67
2022/12/12 15:57:12;;;;;;;23.35;9.88;;;13.90;82.00;;;;;;5030853;28;20508;-67
2022/12/12 16:00:35;;;;;;;25.50;6.63;;;13.90;82.40;;;;;;5030006;28;20045;-67
2022/12/12 16:03:58;;;;;;;15.32;7.03;;;13.80;82.30;;;;;;5029288;28;20421;-68
2022/12/12 16:07:18;;;;;;;19.50;8.23;;;13.60;81.70;;;;;;5030623;28;20512;-70
2022/12/12 16:10:23;;;;;;;17.50;9.15;;;13.50;82.20;;;;;;5030871;28;20064;-69
2022/12/12 16:13:40;;;;;;;34.85;12.77;;;13.30;82.20;;;;;;5030272;28;20048;-68
2022/12/12 16:16:47;;;;;;;23.23;12.52;;;13.30;83.00;;;;;;5030328;28;20052;-67
2022/12/12 16:20:03;;;;;;;28.20;13.88;;;13.30;83.50;;;;;;5030217;28;20040;-66
2022/12/12 16:23:27;;;;;;;38.40;14.55;;;13.40;83.20;;;;;;5030145;28;20053;-67
2022/12/12 16:26:31;;;;;;;41.55;16.63;;;13.40;84.50;;;;;;5030903;28;20060;-68
2022/12/12 16:29:35;;;;;;;44.85;19.55;;;13.20;84.60;;;;;;5030010;28;20056;-66
2022/12/12 16:32:39;;;;;;;36.08;19.02;;;13.20;84.70;;;;;;5031769;28;20048;-66
2022/12/12 16:35:43;;;;;;;52.55;21.38;;;14.30;85.80;;;;;;5034042;28;20397;-66
2022/12/12 16:38:48;;;;;;;68.80;23.90;;;13.00;85.50;;;;;;5033653;28;20048;-66
2022/12/12 16:41:51;;;;;;;36.55;18.77;;;14.00;86.70;;;;;;5033917;28;20052;-68
2022/12/12 16:44:55;;;;;;;50.90;21.25;;;12.30;85.90;;;;;;5033765;28;20045;-66
2022/12/12 16:47:59;;;;;;;44.28;23.00;;;12.80;86.50;;;;;;5033576;28;20052;-66
2022/12/12 16:51:06;;;;;;;52.15;25.45;;;11.20;86.10;;;;;;5033394;28;20053;-65
2022/12/12 16:54:15;;;;;;;51.00;25.75;;;11.10;86.80;;;;;;5033394;28;20385;-66
2022/12/12 16:57:20;;;;;;;54.10;29.20;;;12.30;87.70;;;;;;5033531;28;20580;-65
2022/12/12 17:00:25;;;;;;;55.92;29.50;;;15.30;90.10;;;;;;5033260;28;20044;-67
2022/12/12 17:03:30;;;;;;;63.03;29.92;;;;;;;;;;5033596;28;20037;-66